METAR AND TAF INFORMATION
METAR FOR GCXO
ADDS - METARS form results

(2217 UTC 12 December 2018)
Data provider http://aviationweather.gov/metar/data/
 
METAR text: GCXO 122200Z 30014KT 280V340 9999 BKN016 14/11 Q1027 NOSIG
Conditions at: GCXO (TENERIFE/LOS ROD, ES) observed 2200 UTC 12 December 2018
Temperature: 14.0°C (57°F)
Dewpoint: 11.0°C (52°F) [RH = 82%]
Pressure (altimeter): 30.32 inches Hg (1027.0 mb)
Winds: from the WNW (300 degrees) at 16 MPH (14 knots; 7.2 m/s)
Visibility: 6 or more miles (10+ km)
Ceiling: 1600 feet AGL
Clouds: broken clouds at 1600 feet AGL
Weather: no significant weather observed at this time

METAR text: GCXO 122130Z 31012KT 280V340 9999 FEW010 SCT015 13/11 Q1027 NOSIG
Conditions at: GCXO (TENERIFE/LOS ROD, ES) observed 2130 UTC 12 December 2018
Temperature: 13.0°C (55°F)
Dewpoint: 11.0°C (52°F) [RH = 88%]
Pressure (altimeter): 30.32 inches Hg (1027.0 mb)
Winds: from the NW (310 degrees) at 14 MPH (12 knots; 6.2 m/s)
Visibility: 6 or more miles (10+ km)
Ceiling: at least 12,000 feet AGL
Clouds: few clouds at 1000 feet AGL
scattered clouds at 1500 feet AGL
Weather: no significant weather observed at this time

Forecast for: GCXO (TENERIFE/LOS ROD, ES)
Text: TAF GCXO 122000Z 1221/1321 31009KT 9999 SCT012 TX19/1313Z TN12/1306Z
Forecast period: 2100 UTC 12 December 2018 to 2100 UTC 13 December 2018
Forecast type: FROM: standard forecast or significant change
Winds: from the NW (310 degrees) at 10 MPH (9 knots; 4.6 m/s)
Visibility: 6 or more miles 10+ km)
Ceiling: at least 12,000 feet AGL
Clouds: scattered clouds at 1200 feet AGL
Weather: no significant weather forecast for this period
Text: TEMPO 1221/1312 BKN012
Forecast period: 2100 UTC 12 December 2018 to 1200 UTC 13 December 2018
Forecast type: TEMPORARY: The following changes expected for less than half the time period
Visibility: missing
Ceiling: 1200 feet AGL
Clouds: broken clouds at 1200 feet AGL
Weather: no significant weather forecast for this period
Text: PROB40
Forecast period: 2100 UTC 12 December 2018 to 0900 UTC 13 December 2018
Forecast type: TEMPORARY: The following changes expected for less than half the time period
Visibility: 2.49 miles (4.01 km)
Ceiling: 800 feet AGL
Clouds: broken clouds at 800 feet AGL
Weather: BCFG  (patches of fog)

 AIRPORT MAP

 RUNWAY INFORMATION
Runway 12 Runway length 11155 ft Runway width 148 ft
Runway elevation 2060 ft Runway displaced threshold 0 ft Runway heading 111
Runway 30 Runway length 11155 ft Runway width 148 ft
Runway elevation 2002 ft Runway displaced threshold 0 ft Runway heading 291

 AIRPORT FREQUENCIES
Type APP Name APP Frequency 119.7 MHZ
Type ATIS Name ATIS Frequency 118.575 MHZ
Type GND Name GND Frequency 121.7 MHZ
Type TWR Name TWR Frequency 118.7 MHZ

 AIRPORT NEAR NAVIGATION AIDS
Type VOR-DME Name Tenerife Norte Frequency 117700 KHZ
Type NDB Name Tenerife Norte Frequency 410 KHZ